Time;durP1;ratioP1;P1;durP2;ratioP2;P2;SDS_P1;SDS_P2;PMS_P1;PMS_P2;Temp;Humidity;BMP_temperature;BMP_pressure;BME280_temperature;BME280_humidity;BME280_pressure;Samples;Min_cycle;Max_cycle;Signal;HPM_P1;HPM_P2
2023/10/30 00:00:19;;;;;;;3.15;1.00;;;;;;;19.03;47.15;99220.50;4942455;28;20038;-77
2023/10/30 00:02:45;;;;;;;2.28;0.90;;;;;;;19.02;47.26;99223.31;4941681;28;20041;-78
2023/10/30 00:05:11;;;;;;;3.15;0.93;;;;;;;18.98;47.16;99212.22;4958221;28;20034;-79
2023/10/30 00:07:37;;;;;;;5.47;0.65;;;;;;;18.92;47.27;99212.88;4958024;28;20045;-77
2023/10/30 00:10:02;;;;;;;4.68;1.05;;;;;;;18.96;47.38;99228.28;4941953;28;20402;-78
2023/10/30 00:12:28;;;;;;;2.13;0.93;;;;;;;18.94;47.19;99224.13;4941546;28;20105;-78
2023/10/30 00:14:53;;;;;;;6.47;1.33;;;;;;;18.93;47.36;99222.47;4958032;28;20035;-78
2023/10/30 00:17:19;;;;;;;3.10;0.90;;;;;;;18.90;47.44;99220.97;4942042;28;20019;-78
2023/10/30 00:19:44;;;;;;;3.40;1.15;;;;;;;18.89;47.41;99218.47;4957976;28;20046;-80
2023/10/30 00:22:11;;;;;;;3.10;0.98;;;;;;;18.89;47.66;99208.72;4941897;28;20034;-78
2023/10/30 00:24:39;;;;;;;3.13;1.00;;;;;;;18.91;47.64;99213.84;4942045;28;20030;-78
2023/10/30 00:27:05;;;;;;;;;;;;;;;18.90;47.50;99220.97;4957594;28;20498;-77
2023/10/30 00:29:30;;;;;;;3.80;1.15;;;;;;;18.85;47.90;99217.97;4929587;29;20024;-79
2023/10/30 00:31:56;;;;;;;3.95;1.25;;;;;;;18.82;47.83;99210.31;4938627;29;20090;-78
2023/10/30 00:34:21;;;;;;;2.03;1.00;;;;;;;18.90;47.63;99217.50;4922816;29;20046;-78
2023/10/30 00:36:47;;;;;;;4.57;1.20;;;;;;;18.90;47.77;99220.16;4937900;29;20035;-79
2023/10/30 00:39:12;;;;;;;3.38;1.20;;;;;;;18.90;47.53;99220.97;4937612;29;20035;-79
2023/10/30 00:41:38;;;;;;;2.30;0.90;;;;;;;18.94;47.67;99218.81;4937969;28;20035;-78
2023/10/30 00:44:03;;;;;;;2.17;1.00;;;;;;;18.96;47.66;99211.53;4938737;29;20458;-78
2023/10/30 00:46:29;;;;;;;3.53;1.13;;;;;;;18.96;47.60;99211.53;4922538;29;20047;-78
2023/10/30 00:48:54;;;;;;;2.90;1.15;;;;;;;18.96;47.55;99207.09;4922688;29;20478;-78
2023/10/30 00:51:20;;;;;;;3.55;1.10;;;;;;;19.04;47.50;99208.09;4922062;29;20039;-77
2023/10/30 00:53:45;;;;;;;6.85;1.23;;;;;;;19.04;47.61;99210.75;4955571;29;20126;-79
2023/10/30 00:56:11;;;;;;;4.03;1.10;;;;;;;19.06;47.64;99217.56;4922259;29;20039;-76
2023/10/30 00:58:36;;;;;;;3.53;1.30;;;;;;;19.10;47.59;99215.41;4924335;28;20056;-77
2023/10/30 01:01:02;;;;;;;9.75;1.33;;;;;;;19.16;47.54;99220.06;4922171;29;20031;-77
2023/10/30 01:03:27;;;;;;;4.28;1.13;;;;;;;19.12;47.67;99211.63;4938277;29;20066;-78
2023/10/30 01:05:59;;;;;;;4.00;1.20;;;;;;;19.19;47.40;99218.91;4938019;29;20383;-78
2023/10/30 01:08:26;;;;;;;2.75;1.25;;;;;;;19.20;47.61;99218.75;4923051;29;20030;-78
2023/10/30 01:10:52;;;;;;;5.85;1.75;;;;;;;19.22;47.68;99221.25;4906486;29;20035;-78
2023/10/30 01:13:18;;;;;;;5.70;1.48;;;;;;;19.23;47.87;99213.16;4921534;29;20039;-78
2023/10/30 01:15:43;;;;;;;4.40;1.30;;;;;;;19.23;47.75;99213.16;4937911;29;20043;-78
2023/10/30 01:18:09;;;;;;;5.32;1.42;;;;;;;19.28;47.97;99221.44;4937710;29;20035;-79
2023/10/30 01:20:38;;;;;;;4.70;1.55;;;;;;;19.27;47.68;99218.94;4922208;29;20038;-79
2023/10/30 01:23:04;;;;;;;5.88;1.35;;;;;;;19.31;47.79;99215.81;4921523;29;20101;-78
2023/10/30 01:25:29;;;;;;;5.25;1.50;;;;;;;19.29;47.71;99207.22;4920912;29;20039;-78
2023/10/30 01:27:55;;;;;;;5.85;1.25;;;;;;;19.31;47.80;99210.53;4921071;29;20474;-79
2023/10/30 01:30:20;;;;;;;3.47;1.27;;;;;;;19.29;47.73;99203.72;4921204;29;20035;-79
2023/10/30 01:32:46;;;;;;;2.63;1.10;;;;;;;19.30;47.69;99214.13;4936366;28;20396;-80
2023/10/30 01:35:11;;;;;;;2.90;1.38;;;;;;;19.27;47.97;99201.22;4952309;29;20106;-79
2023/10/30 01:37:37;;;;;;;5.63;1.50;;;;;;;19.31;47.89;99207.88;4920762;29;20046;-79
2023/10/30 01:40:03;;;;;;;3.83;1.27;;;;;;;19.30;47.90;99208.84;4936487;29;20128;-78
2023/10/30 01:42:28;;;;;;;3.47;1.40;;;;;;;19.30;47.89;99206.19;4920724;29;20035;-78
2023/10/30 01:44:55;;;;;;;3.45;1.30;;;;;;;19.29;47.84;99201.91;4920249;29;20039;-79
2023/10/30 01:47:20;;;;;;;3.83;1.50;;;;;;;19.28;47.85;99194.13;4936458;29;20051;-77
2023/10/30 01:49:45;;;;;;;4.40;1.48;;;;;;;19.27;47.87;99195.13;4937068;29;20101;-78
2023/10/30 01:52:11;;;;;;;4.07;1.30;;;;;;;19.23;47.83;99196.41;4920182;29;20047;-78
2023/10/30 01:54:37;;;;;;;3.72;1.58;;;;;;;19.23;48.04;99199.06;4921299;29;20450;-78
2023/10/30 01:57:03;;;;;;;4.35;1.45;;;;;;;19.22;47.92;99194.78;4936732;29;20031;-78
2023/10/30 01:59:29;;;;;;;2.03;1.00;;;;;;;19.15;47.97;99184.84;4920510;29;20074;-77
2023/10/30 02:01:54;;;;;;;2.95;1.52;;;;;;;19.20;48.03;99194.94;4936495;29;20070;-78
2023/10/30 02:04:20;;;;;;;3.92;1.35;;;;;;;19.17;48.12;99190.78;4926294;28;20049;-78
2023/10/30 02:06:45;;;;;;;2.38;1.20;;;;;;;19.14;48.09;99192.94;4939623;28;20023;-77
2023/10/30 02:09:11;;;;;;;2.40;1.30;;;;;;;19.14;48.15;99193.75;4940396;28;20474;-78
2023/10/30 02:11:36;;;;;;;3.55;1.27;;;;;;;19.14;48.12;99196.41;4955497;28;20034;-77
2023/10/30 02:14:02;;;;;;;4.15;1.40;;;;;;;19.10;48.01;99192.44;4954980;28;20038;-79
2023/10/30 02:16:27;;;;;;;4.45;1.30;;;;;;;19.11;48.07;99195.91;4955642;28;20050;-79
2023/10/30 02:18:53;;;;;;;2.95;1.25;;;;;;;19.10;48.04;99196.88;4940053;28;20030;-78
2023/10/30 02:21:19;;;;;;;3.35;1.30;;;;;;;19.05;48.10;99193.91;4955454;28;20023;-78
2023/10/30 02:23:44;;;;;;;4.15;1.60;;;;;;;19.02;48.31;99200.31;4939824;28;20374;-78
2023/10/30 02:26:10;;;;;;;4.45;1.50;;;;;;;19.01;48.38;99197.84;4958189;28;20050;-79
2023/10/30 02:28:36;;;;;;;2.22;1.23;;;;;;;18.96;48.11;99195.69;4959239;28;20030;-78
2023/10/30 02:31:01;;;;;;;3.17;1.20;;;;;;;18.94;48.17;99195.88;4957932;28;20041;-78
2023/10/30 02:33:26;;;;;;;3.25;1.00;;;;;;;18.91;48.32;99193.53;4940311;29;20055;-79
2023/10/30 02:35:52;;;;;;;4.53;1.42;;;;;;;18.87;48.31;99194.84;4924359;29;20042;-79
2023/10/30 02:38:17;;;;;;;4.70;1.25;;;;;;;18.90;48.19;99196.34;4923998;29;20125;-79
2023/10/30 02:40:43;;;;;;;4.78;1.10;;;;;;;18.85;48.14;99188.03;4957072;28;20105;-79
2023/10/30 02:43:09;;;;;;;4.35;1.50;;;;;;;18.86;48.17;99189.69;4943186;28;20058;-79
2023/10/30 02:45:35;;;;;;;4.53;1.25;;;;;;;18.84;48.14;99192.50;4976874;28;20042;-79
2023/10/30 02:48:01;;;;;;;3.28;1.30;;;;;;;18.80;48.23;99191.13;4943029;28;20501;-79
2023/10/30 02:50:26;;;;;;;3.10;1.10;;;;;;;18.77;48.38;99192.28;4959095;28;20046;-79
2023/10/30 02:52:52;;;;;;;6.30;1.38;;;;;;;18.75;48.35;99201.34;4958778;28;20037;-79
2023/10/30 02:55:17;;;;;;;3.45;1.45;;;;;;;18.68;48.45;99187.94;4942253;28;20101;-78
2023/10/30 02:57:43;;;;;;;3.78;1.35;;;;;;;18.67;48.40;99191.56;4974944;28;20124;-79
2023/10/30 03:00:09;;;;;;;5.70;1.42;;;;;;;18.69;48.34;99199.34;4958961;28;20501;-78
2023/10/30 03:02:34;;;;;;;6.32;1.23;;;;;;;18.65;48.55;99200.66;4975139;28;20161;-77
2023/10/30 03:05:00;;;;;;;4.15;1.25;;;;;;;18.61;48.56;99198.31;4959571;28;20038;-78
2023/10/30 03:07:25;;;;;;;1.60;1.02;;;;;;;18.61;48.61;99198.31;4959637;28;20062;-79
2023/10/30 03:09:51;;;;;;;6.80;1.27;;;;;;;18.55;48.56;99191.03;4959448;28;20077;-80
2023/10/30 03:12:16;;;;;;;3.70;1.40;;;;;;;18.56;48.63;99199.78;4975892;28;20031;-77
2023/10/30 03:14:42;;;;;;;2.60;1.05;;;;;;;18.54;48.56;99199.94;4958912;28;20129;-78
2023/10/30 03:17:07;;;;;;;7.35;1.65;;;;;;;18.53;48.73;99192.16;4959460;28;20027;-79
2023/10/30 03:19:33;;;;;;;3.80;1.70;;;;;;;18.46;48.72;99186.66;4959317;28;20042;-78
2023/10/30 03:21:58;;;;;;;4.55;1.40;;;;;;;18.46;48.71;99191.13;4959403;28;20031;-79
2023/10/30 03:24:24;;;;;;;2.72;1.10;;;;;;;18.40;48.81;99192.56;4959538;28;20039;-80
2023/10/30 03:26:50;;;;;;;2.63;1.25;;;;;;;18.36;48.96;99186.78;4975210;28;20049;-80
2023/10/30 03:29:16;;;;;;;3.90;1.33;;;;;;;18.34;49.11;99182.63;4943764;28;20047;-79
2023/10/30 03:31:41;;;;;;;3.58;1.10;;;;;;;18.35;49.33;99197.50;4958838;28;20047;-78
2023/10/30 03:34:07;;;;;;;2.88;1.20;;;;;;;18.28;49.41;99192.03;4976541;28;20035;-78
2023/10/30 03:36:32;;;;;;;2.58;1.23;;;;;;;18.30;49.32;99199.81;4975508;28;20037;-78
2023/10/30 03:38:58;;;;;;;2.97;1.20;;;;;;;18.29;49.36;99193.66;4942961;28;20039;-78
2023/10/30 03:41:24;;;;;;;4.43;1.20;;;;;;;18.26;49.35;99194.81;4958912;28;20089;-77
2023/10/30 03:43:49;;;;;;;4.80;1.25;;;;;;;18.22;49.33;99184.72;4958191;28;20034;-78
2023/10/30 03:46:15;;;;;;;3.65;1.45;;;;;;;18.22;49.33;99193.47;4941637;28;20509;-78
2023/10/30 03:48:40;;;;;;;4.47;1.23;;;;;;;18.25;49.30;99195.78;4941623;28;20054;-78
2023/10/30 03:51:06;;;;;;;10.95;1.42;;;;;;;18.21;49.22;99194.44;4957548;28;20482;-77
2023/10/30 03:53:31;;;;;;;3.47;1.30;;;;;;;18.21;49.18;99189.16;4957973;28;20031;-78
2023/10/30 03:55:57;;;;;;;4.85;1.30;;;;;;;18.22;49.11;99200.56;4957501;28;20138;-78
2023/10/30 03:58:22;;;;;;;3.35;1.65;;;;;;;18.20;49.18;99195.44;4969975;28;20063;-79
2023/10/30 04:00:48;;;;;;;4.18;1.33;;;;;;;18.19;49.38;99198.25;4938390;29;20066;-78
2023/10/30 04:03:13;;;;;;;2.35;1.00;;;;;;;18.14;49.17;99196.06;4922347;29;20071;-78
2023/10/30 04:05:39;;;;;;;2.63;1.17;;;;;;;18.16;49.33;99203.81;4922669;29;20071;-79
2023/10/30 04:08:04;;;;;;;3.15;1.20;;;;;;;18.15;49.31;99199.50;4922764;29;20036;-80
2023/10/30 04:10:30;;;;;;;8.18;1.27;;;;;;;18.11;49.38;99190.25;4922151;29;20081;-80
2023/10/30 04:12:56;;;;;;;2.30;1.00;;;;;;;18.11;49.21;99199.00;4921764;29;20040;-79
2023/10/30 04:15:22;;;;;;;3.22;1.17;;;;;;;18.10;49.32;99194.69;4937592;29;20047;-78
2023/10/30 04:17:47;;;;;;;2.42;1.10;;;;;;;18.08;49.47;99197.50;4938105;29;20035;-78
2023/10/30 04:20:13;;;;;;;4.80;1.40;;;;;;;18.02;49.41;99200.75;4938111;29;20034;-78
2023/10/30 04:22:38;;;;;;;7.55;1.02;;;;;;;18.04;49.22;99201.44;4938063;29;20505;-79
2023/10/30 04:25:06;;;;;;;3.38;1.10;;;;;;;18.01;49.14;99195.63;4937997;29;20113;-79
2023/10/30 04:27:31;;;;;;;5.60;1.40;;;;;;;17.96;49.53;99193.44;4922592;29;20046;-79
2023/10/30 04:29:57;;;;;;;5.00;1.20;;;;;;;17.96;49.49;99203.19;4922983;29;20134;-78
2023/10/30 04:32:22;;;;;;;4.18;1.10;;;;;;;17.93;49.86;99200.84;4937414;29;20043;-79
2023/10/30 04:34:48;;;;;;;5.43;1.20;;;;;;;17.86;49.88;99206.69;4931550;28;20042;-79
2023/10/30 04:37:15;;;;;;;4.35;1.40;;;;;;;17.84;50.00;99206.03;4957286;28;20030;-78
2023/10/30 04:39:40;;;;;;;7.55;1.48;;;;;;;17.82;49.87;99210.66;4957241;28;20039;-80
2023/10/30 04:42:06;;;;;;;6.60;1.42;;;;;;;17.80;50.09;99202.03;4925274;28;20043;-80
2023/10/30 04:44:31;;;;;;;4.65;1.10;;;;;;;17.82;50.22;99215.06;4940956;28;20050;-80
2023/10/30 04:46:57;;;;;;;2.58;1.00;;;;;;;17.93;56.46;99221.97;4940133;28;20046;-76
2023/10/30 04:49:22;;;;;;;2.30;0.90;;;;;;;18.19;55.00;99219.38;4973445;28;20055;-71
2023/10/30 04:51:47;;;;;;;3.72;1.13;;;;;;;18.32;57.21;99217.13;4956965;28;20035;-73
2023/10/30 04:54:13;;;;;;;3.53;1.08;;;;;;;18.65;57.76;99219.16;4974872;28;20493;-72
2023/10/30 04:56:39;;;;;;;6.82;1.10;;;;;;;19.00;55.51;99210.25;4925332;28;20086;-73
2023/10/30 04:59:04;;;;;;;3.85;0.98;;;;;;;19.48;53.60;99227.28;4957530;28;20093;-72
2023/10/30 05:01:30;;;;;;;5.88;1.20;;;;;;;19.81;52.91;99213.25;4953987;28;20046;-72
2023/10/30 05:03:55;;;;;;;7.60;1.30;;;;;;;20.19;51.58;99216.22;4937598;28;20046;-73
2023/10/30 05:06:20;;;;;;;10.55;1.55;;;;;;;20.57;51.45;99211.19;4924728;29;20031;-73
2023/10/30 05:08:46;;;;;;;9.20;1.40;;;;;;;20.92;51.14;99217.06;4922221;29;20039;-74
2023/10/30 05:11:12;;;;;;;9.75;1.70;;;;;;;21.26;49.74;99222.06;4921837;29;20475;-72
2023/10/30 05:13:37;;;;;;;3.80;1.27;;;;;;;21.57;48.19;99217.75;4937808;29;20042;-76
2023/10/30 05:16:03;;;;;;;5.07;1.30;;;;;;;21.82;46.51;99221.91;4921686;29;20506;-76
2023/10/30 05:18:30;;;;;;;3.10;1.33;;;;;;;22.07;45.53;99215.56;4921739;29;20035;-75
2023/10/30 05:20:55;;;;;;;7.03;1.42;;;;;;;22.28;44.58;99214.84;4947301;28;20042;-75
2023/10/30 05:23:21;;;;;;;5.13;1.23;;;;;;;22.53;43.43;99218.13;4921563;29;20047;-75
2023/10/30 05:25:46;;;;;;;2.25;1.00;;;;;;;22.77;42.89;99222.34;4920535;29;20523;-74
2023/10/30 05:28:12;;;;;;;4.10;1.40;;;;;;;23.03;41.82;99229.03;4952730;29;20047;-75
2023/10/30 05:30:37;;;;;;;3.33;1.30;;;;;;;23.25;41.14;99225.44;4953349;28;20058;-73
2023/10/30 05:33:03;;;;;;;9.38;1.55;;;;;;;23.48;41.82;99225.28;4937279;28;20039;-74
2023/10/30 05:35:28;;;;;;;12.05;1.58;;;;;;;23.70;41.83;99235.94;4937518;29;20027;-73
2023/10/30 05:37:54;;;;;;;6.93;1.35;;;;;;;23.88;41.98;99232.88;4924259;28;20477;-74
2023/10/30 05:40:22;;;;;;;14.93;1.63;;;;;;;24.09;41.46;99244.53;4956250;28;20418;-74
2023/10/30 05:42:47;;;;;;;;;;;;;;;24.31;41.02;99240.81;4945546;28;20038;-73
2023/10/30 05:45:13;;;;;;;4.07;1.38;;;;;;;24.52;40.56;99247.94;4956044;28;20005;-72
2023/10/30 05:47:39;;;;;;;12.43;1.58;;;;;;;24.80;39.83;99239.09;4955973;28;20058;-72
2023/10/30 05:50:05;;;;;;;6.72;1.55;;;;;;;25.12;39.25;99242.13;4956185;28;20509;-75
2023/10/30 05:52:30;;;;;;;6.50;1.40;;;;;;;25.44;38.61;99237.97;4972398;28;20057;-74
2023/10/30 05:54:56;;;;;;;8.90;1.33;;;;;;;25.74;36.19;99242.94;4957854;28;20027;-72
2023/10/30 05:57:22;;;;;;;14.60;2.00;;;;;;;25.87;36.52;99246.66;4972544;28;20043;-68
2023/10/30 05:59:47;;;;;;;8.77;1.65;;;;;;;25.99;35.16;99240.53;4972860;28;20037;-67
2023/10/30 06:02:15;;;;;;;37.42;2.40;;;;;;;26.23;33.62;99245.47;4965131;28;20035;-68
2023/10/30 06:04:40;;;;;;;17.17;1.35;;;;;;;26.40;33.22;99241.34;4931875;28;20093;-68
2023/10/30 06:07:06;;;;;;;7.63;1.65;;;;;;;26.63;33.01;99246.25;4955930;28;20058;-68
2023/10/30 06:09:31;;;;;;;12.57;2.08;;;;;;;26.86;31.80;99251.16;4940148;28;20457;-70
2023/10/30 06:11:57;;;;;;;8.40;1.70;;;;;;;27.12;31.75;99253.97;4972610;28;20486;-68
2023/10/30 06:14:22;;;;;;;5.68;2.15;;;;;;;27.32;31.48;99241.31;4956014;28;20478;-67
2023/10/30 06:16:48;;;;;;;8.02;1.75;;;;;;;27.55;30.62;99248.03;4942545;29;20171;-68
2023/10/30 06:19:13;;;;;;;8.20;1.60;;;;;;;28.08;30.33;99258.41;4921113;29;20031;-69
2023/10/30 06:21:39;;;;;;;12.23;2.10;;;;;;;28.63;28.83;99251.53;4934592;28;20121;-68
2023/10/30 06:24:06;;;;;;;8.65;1.50;;;;;;;29.25;27.37;99253.34;4972332;28;20034;-70
2023/10/30 06:26:32;;;;;;;11.32;1.90;;;;;;;29.80;27.07;99242.44;4955289;28;20509;-68
2023/10/30 06:28:57;;;;;;;9.50;1.60;;;;;;;30.42;26.25;99258.22;4955915;28;20035;-68
2023/10/30 06:31:23;;;;;;;12.60;1.63;;;;;;;30.97;25.23;99259.72;4939256;28;20030;-68
2023/10/30 06:33:48;;;;;;;15.63;1.63;;;;;;;31.44;25.05;99257.91;4937471;28;20035;-68
2023/10/30 06:36:14;;;;;;;11.98;1.63;;;;;;;31.76;24.22;99252.06;4939941;28;20105;-68
2023/10/30 06:38:39;;;;;;;5.95;1.40;;;;;;;32.02;24.00;99264.91;4955506;28;20511;-68
2023/10/30 06:41:05;;;;;;;7.65;1.67;;;;;;;32.47;23.57;99265.91;4940703;29;20078;-73
2023/10/30 06:43:32;;;;;;;9.27;1.70;;;;;;;32.71;22.97;99261.13;4936076;29;20070;-68
2023/10/30 06:46:03;;;;;;;10.30;1.77;;;;;;;32.94;22.29;99259.25;4920975;29;20058;-68
2023/10/30 06:48:28;;;;;;;9.85;1.80;;;;;;;33.04;22.06;99258.56;4920827;28;20070;-69
2023/10/30 06:50:54;;;;;;;12.57;1.90;;;;;;;32.59;22.38;99266.63;4951255;28;20038;-68
2023/10/30 06:53:20;;;;;;;12.95;1.85;;;;;;;32.46;22.65;99256.97;4932420;29;20530;-68
2023/10/30 06:55:45;;;;;;;7.70;1.70;;;;;;;32.21;22.72;99256.59;4938451;28;20376;-84
2023/10/30 06:58:11;;;;;;;7.45;1.90;;;;;;;31.44;23.20;99256.06;4926365;29;20035;-78
2023/10/30 07:00:37;;;;;;;11.80;2.10;;;;;;;31.30;24.04;99260.91;4936749;29;20031;-77
2023/10/30 07:03:02;;;;;;;9.98;1.70;;;;;;;31.40;23.19;99262.97;4963895;28;20035;-78
2023/10/30 07:05:28;;;;;;;6.68;1.33;;;;;;;31.85;23.66;99258.66;4939672;28;20077;-78
2023/10/30 07:07:53;;;;;;;7.20;1.65;;;;;;;32.16;22.36;99265.44;4972213;28;20031;-78
2023/10/30 07:10:19;;;;;;;14.43;2.70;;;;;;;32.77;23.24;99267.44;4955074;28;20066;-77
2023/10/30 07:12:44;;;;;;;8.85;2.08;;;;;;;33.29;21.54;99264.31;4975674;28;20034;-78
2023/10/30 07:15:10;;;;;;;10.15;1.83;;;;;;;33.21;21.07;99267.47;4942477;28;20049;-80
2023/10/30 07:17:36;;;;;;;8.65;1.45;;;;;;;33.03;21.03;99267.75;4940430;29;20438;-72
2023/10/30 07:20:02;;;;;;;10.30;1.48;;;;;;;33.26;21.33;99264.00;4938966;28;20471;-72
2023/10/30 07:22:28;;;;;;;7.13;2.17;;;;;;;32.72;21.87;99267.34;4958422;28;20042;-77
2023/10/30 07:24:54;;;;;;;12.88;2.13;;;;;;;33.61;21.47;99255.41;4958490;28;20038;-76
2023/10/30 07:27:19;;;;;;;8.02;1.83;;;;;;;34.39;20.55;99259.59;4976655;28;20058;-78
2023/10/30 07:29:45;;;;;;;13.23;2.50;;;;;;;34.81;19.58;99257.97;4959023;28;20030;-81
2023/10/30 07:32:10;;;;;;;13.25;2.60;;;;;;;35.22;19.51;99253.53;4969394;28;20085;-83
2023/10/30 07:34:36;;;;;;;10.45;3.22;;;;;;;35.47;19.46;99260.09;4986301;28;20371;-87
2023/10/30 07:37:01;;;;;;;14.20;3.22;;;;;;;35.60;18.95;99258.78;4946507;28;20077;-85
2023/10/30 07:39:27;;;;;;;17.90;3.58;;;;;;;35.61;19.03;99260.41;4965059;28;20035;-86
2023/10/30 07:41:52;;;;;;;15.40;3.47;;;;;;;35.73;19.38;99254.72;4945101;29;20106;-87
2023/10/30 07:44:18;;;;;;;21.77;4.28;;;;;;;35.73;18.69;99257.44;4943897;29;20078;-79
2023/10/30 07:46:43;;;;;;;15.50;4.65;;;;;;;35.67;19.17;99251.97;4947140;29;20046;-91
2023/10/30 07:49:09;;;;;;;22.63;5.22;;;;;;;35.76;18.75;99265.88;4928345;29;20051;-82
2023/10/30 07:51:34;;;;;;;27.40;5.05;;;;;;;35.89;18.54;99258.28;4940182;29;20034;-85
2023/10/30 07:54:03;;;;;;;19.02;5.40;;;;;;;36.01;18.58;99253.41;4924429;29;20415;-84
2023/10/30 07:56:29;;;;;;;16.88;4.53;;;;;;;36.16;18.65;99258.81;4958044;29;20438;-84
2023/10/30 07:58:54;;;;;;;16.33;4.93;;;;;;;36.09;18.78;99254.72;4940792;29;20043;-84
2023/10/30 08:01:20;;;;;;;23.70;5.18;;;;;;;36.30;18.41;99255.56;4942596;29;20031;-83
2023/10/30 08:03:46;;;;;;;20.50;5.07;;;;;;;36.41;18.06;99254.44;4928248;29;20035;-86
2023/10/30 08:06:12;;;;;;;21.17;4.80;;;;;;;36.53;18.33;99257.69;4925452;29;20514;-83
2023/10/30 08:08:38;;;;;;;24.75;4.95;;;;;;;36.51;17.97;99259.03;4940657;29;20505;-85
2023/10/30 08:11:04;;;;;;;16.30;5.53;;;;;;;36.60;17.95;99262.03;4940619;29;20102;-82
2023/10/30 08:13:29;;;;;;;25.27;5.57;;;;;;;36.63;18.00;99262.28;4943616;29;20474;-84
2023/10/30 08:15:55;;;;;;;13.18;5.05;;;;;;;36.70;18.06;99259.25;4926857;29;20047;-85
2023/10/30 08:18:20;;;;;;;19.20;4.68;;;;;;;36.63;18.18;99256.03;4939662;29;20491;-85
2023/10/30 08:20:46;;;;;;;13.15;3.65;;;;;;;36.56;18.01;99256.31;4925741;29;20094;-83
2023/10/30 08:23:12;;;;;;;14.18;4.00;;;;;;;36.68;17.97;99256.81;4923983;29;20134;-84
2023/10/30 08:25:37;;;;;;;12.05;3.50;;;;;;;36.75;17.59;99251.94;4924472;29;20437;-84
2023/10/30 08:28:03;;;;;;;11.05;3.20;;;;;;;36.74;17.60;99247.59;4924101;29;20514;-84
2023/10/30 08:30:29;;;;;;;8.93;2.58;;;;;;;36.75;17.62;99256.53;4924389;29;20070;-83
2023/10/30 08:32:54;;;;;;;11.35;2.40;;;;;;;36.72;17.65;99254.34;4939824;29;20367;-82
2023/10/30 08:35:20;;;;;;;7.03;2.47;;;;;;;36.90;17.70;99251.06;4923511;29;20038;-83
2023/10/30 08:37:45;;;;;;;10.88;1.90;;;;;;;37.10;17.39;99258.31;4956907;28;20030;-84
2023/10/30 08:40:12;;;;;;;10.20;1.88;;;;;;;37.26;17.51;99252.81;4956816;28;20422;-83
2023/10/30 08:42:37;;;;;;;7.55;1.92;;;;;;;37.49;17.49;99262.19;4957058;28;20031;-84
2023/10/30 08:45:05;;;;;;;8.00;2.10;;;;;;;37.74;17.03;99252.25;4939939;29;20039;-83
2023/10/30 08:47:30;;;;;;;6.43;2.33;;;;;;;37.99;16.89;99252.03;4924351;29;20062;-84
2023/10/30 08:49:56;;;;;;;8.57;1.88;;;;;;;38.87;16.17;99251.13;4939667;29;20483;-82
2023/10/30 08:52:22;;;;;;;12.35;2.17;;;;;;;40.04;15.03;99242.34;4940427;29;20046;-84
2023/10/30 08:54:47;;;;;;;5.20;1.85;;;;;;;41.38;14.27;99243.25;4936583;29;20039;-86
2023/10/30 08:57:13;;;;;;;10.45;2.10;;;;;;;42.64;13.09;99249.66;4939846;29;20035;-84
2023/10/30 08:59:40;;;;;;;6.03;1.67;;;;;;;43.85;12.19;99244.59;4972386;29;20027;-84
2023/10/30 09:02:06;;;;;;;6.82;2.00;;;;;;;44.71;11.71;99241.88;4930583;29;20039;-85
2023/10/30 09:04:32;;;;;;;6.20;1.83;;;;;;;44.71;11.63;99241.88;4923579;29;20414;-83
2023/10/30 09:06:57;;;;;;;10.03;2.03;;;;;;;44.30;12.06;99246.13;4924483;29;20470;-84
2023/10/30 09:09:23;;;;;;;9.10;1.60;;;;;;;44.29;12.00;99251.94;4938947;29;20040;-85
2023/10/30 09:11:48;;;;;;;10.13;2.00;;;;;;;43.40;12.52;99241.41;4939265;29;20490;-84
2023/10/30 09:14:14;;;;;;;6.80;2.07;;;;;;;42.40;13.44;99235.50;4940008;29;20070;-86
2023/10/30 09:16:39;;;;;;;8.50;2.30;;;;;;;41.38;14.49;99236.97;4939156;29;20491;-83
2023/10/30 09:19:05;;;;;;;10.02;3.25;;;;;;;40.62;14.97;99224.59;4954750;28;20035;-84
2023/10/30 09:21:30;;;;;;;18.25;3.35;;;;;;;40.08;15.53;99226.97;4923344;29;20038;-81
2023/10/30 09:23:56;;;;;;;21.25;3.42;;;;;;;39.89;15.63;99220.75;4922466;29;20474;-83
2023/10/30 09:26:21;;;;;;;19.17;3.67;;;;;;;39.70;16.09;99229.78;4922760;29;20038;-83
2023/10/30 09:28:47;;;;;;;14.98;3.50;;;;;;;39.56;16.11;99226.22;4955574;29;20031;-84
2023/10/30 09:31:12;;;;;;;14.38;3.75;;;;;;;39.40;16.23;99215.50;4956628;28;20038;-85
2023/10/30 09:33:38;;;;;;;16.33;3.97;;;;;;;39.04;16.28;99215.19;4923559;29;20098;-84
2023/10/30 09:36:05;;;;;;;19.08;4.15;;;;;;;38.79;16.74;99211.66;4922523;29;20031;-83
2023/10/30 09:38:31;;;;;;;19.33;4.20;;;;;;;38.54;16.97;99210.06;4923640;29;20471;-83
2023/10/30 09:41:04;;;;;;;15.35;3.75;;;;;;;38.39;17.28;99196.59;4923232;29;20031;-85
2023/10/30 09:43:29;;;;;;;13.25;3.70;;;;;;;38.41;17.35;99202.56;4923557;29;20161;-84
2023/10/30 09:45:59;;;;;;;12.35;3.45;;;;;;;38.27;17.32;99203.28;4922749;29;20074;-86
2023/10/30 09:48:24;;;;;;;11.68;3.95;;;;;;;38.09;17.71;99201.25;4922326;29;20063;-84
2023/10/30 09:50:50;;;;;;;12.45;3.55;;;;;;;38.12;17.63;99195.22;4922538;29;20062;-82
2023/10/30 09:53:15;;;;;;;14.05;3.35;;;;;;;38.15;17.65;99191.94;4922053;29;20126;-81
2023/10/30 09:55:41;;;;;;;13.68;3.47;;;;;;;37.76;17.88;99190.91;4921799;28;20066;-84
2023/10/30 09:58:07;;;;;;;21.42;4.32;;;;;;;37.68;18.29;99198.88;4922749;29;20130;-82
2023/10/30 10:00:32;;;;;;;14.90;3.60;;;;;;;37.65;18.02;99181.19;4923182;29;20474;-82
2023/10/30 10:02:58;;;;;;;13.70;3.13;;;;;;;37.38;18.26;99177.03;4922774;29;20105;-83
2023/10/30 10:05:23;;;;;;;13.68;3.42;;;;;;;37.05;18.90;99179.44;4922923;29;20039;-83
2023/10/30 10:07:50;;;;;;;11.30;3.55;;;;;;;36.89;18.82;99177.88;4922970;29;20466;-83
2023/10/30 10:10:18;;;;;;;10.57;3.50;;;;;;;36.70;19.53;99183.13;4922848;29;20130;-83
2023/10/30 10:12:43;;;;;;;10.77;2.83;;;;;;;36.81;19.49;99175.75;4908276;29;20406;-83
2023/10/30 10:15:09;;;;;;;10.70;2.75;;;;;;;36.81;19.56;99181.19;4923087;29;20042;-82
2023/10/30 10:17:51;;;;;;;8.82;3.10;;;;;;;36.79;19.26;99172.50;4922136;29;20106;-84
2023/10/30 10:20:17;;;;;;;11.18;2.78;;;;;;;36.78;19.35;99168.97;4925276;29;20066;-84
2023/10/30 10:22:42;;;;;;;11.85;3.00;;;;;;;36.70;19.39;99158.63;4928494;29;20034;-82
2023/10/30 10:25:10;;;;;;;15.00;3.15;;;;;;;36.62;19.44;99167.38;4927211;29;20150;-83
2023/10/30 10:27:40;;;;;;;9.32;2.65;;;;;;;36.46;19.06;99169.34;4922703;29;20031;-83
2023/10/30 10:30:10;;;;;;;13.02;2.90;;;;;;;35.71;20.39;99168.09;4922260;29;20094;-84
2023/10/30 10:32:37;;;;;;;10.23;2.67;;;;;;;35.78;20.10;99157.00;4945059;29;20504;-87
2023/10/30 10:35:05;;;;;;;11.23;3.10;;;;;;;35.80;20.15;99157.53;4928170;28;20061;-87
2023/10/30 10:37:31;;;;;;;9.15;2.65;;;;;;;35.82;20.45;99149.91;4923681;29;20115;-82
2023/10/30 10:39:56;;;;;;;8.32;2.55;;;;;;;35.70;20.64;99142.03;4922021;29;20118;-83
2023/10/30 10:42:23;;;;;;;9.30;2.42;;;;;;;35.64;20.83;99143.13;4922895;29;20045;-83
2023/10/30 10:44:51;;;;;;;11.77;2.33;;;;;;;35.56;20.85;99143.66;4937060;28;20051;-82
2023/10/30 10:47:16;;;;;;;8.57;2.03;;;;;;;35.36;20.71;99139.03;4925805;29;20039;-84
2023/10/30 10:49:42;;;;;;;9.93;2.28;;;;;;;35.24;21.19;99133.88;4925565;29;20030;-85
2023/10/30 10:52:12;;;;;;;11.15;2.05;;;;;;;34.87;21.46;99137.59;4925965;29;20130;-83
2023/10/30 10:54:59;;;;;;;7.93;2.10;;;;;;;34.39;21.77;99130.34;4926385;29;20038;-83
2023/10/30 10:57:25;;;;;;;14.82;2.53;;;;;;;34.37;22.16;99131.72;4927639;29;20113;-81
2023/10/30 11:00:06;;;;;;;11.98;2.40;;;;;;;34.26;22.17;99130.84;4925694;29;20372;-84
2023/10/30 11:02:32;;;;;;;6.15;1.95;;;;;;;34.17;22.31;99133.19;4928256;29;20035;-84
2023/10/30 11:04:58;;;;;;;9.77;1.90;;;;;;;33.92;22.56;99119.50;4940744;29;20223;-84
2023/10/30 11:07:32;;;;;;;9.13;2.15;;;;;;;33.74;22.87;99128.88;4925788;29;20027;-86
2023/10/30 11:10:01;;;;;;;5.68;1.90;;;;;;;33.52;22.90;99114.31;4957128;29;20031;-81
2023/10/30 11:13:04;;;;;;;8.55;2.10;;;;;;;33.33;23.21;99107.69;4940680;29;20041;-85
2023/10/30 11:15:38;;;;;;;7.53;1.80;;;;;;;33.10;23.59;99117.75;4958253;28;20023;-83
2023/10/30 11:18:24;;;;;;;10.60;1.92;;;;;;;32.90;23.86;99112.13;4940510;29;20035;-82
2023/10/30 11:21:06;;;;;;;6.38;1.80;;;;;;;32.76;24.12;99107.13;4925409;29;20039;-82
2023/10/30 11:23:56;;;;;;;5.50;1.92;;;;;;;32.48;24.23;99105.41;4940509;29;20028;-83
2023/10/30 11:26:36;;;;;;;7.53;1.88;;;;;;;32.14;24.87;99102.84;4941530;29;20027;-83